createdAt,value
2019-06-07T00:01:23.155Z,65.00
2019-06-07T00:03:53.088Z,64.90
2019-06-07T00:06:25.373Z,65.30
2019-06-07T00:08:55.019Z,64.50
2019-06-07T00:11:24.870Z,63.60
2019-06-07T00:13:56.328Z,62.60
2019-06-07T00:16:26.555Z,63.60
2019-06-07T00:18:56.764Z,63.20
2019-06-07T00:22:13.038Z,64.40
2019-06-07T00:23:58.743Z,64.50
2019-06-07T00:26:29.058Z,64.40
2019-06-07T00:28:59.261Z,64.20
2019-06-07T00:31:29.107Z,64.20
2019-06-07T00:34:00.062Z,64.70
2019-06-07T00:36:29.927Z,64.70
2019-06-07T00:38:59.783Z,64.50
2019-06-07T00:41:29.642Z,63.80
2019-06-07T00:43:59.498Z,63.80
2019-06-07T00:46:29.376Z,64.20
2019-06-07T00:48:59.239Z,66.20
2019-06-07T00:51:47.557Z,67.80
2019-06-07T00:54:00.898Z,65.70
2019-06-07T00:56:31.127Z,65.40
2019-06-07T00:59:11.411Z,66.30
2019-06-07T01:01:32.451Z,65.90
2019-06-07T01:04:02.706Z,67.20
2019-06-07T01:06:32.952Z,67.20
2019-06-07T01:09:02.854Z,66.20
2019-06-07T01:11:34.337Z,64.90
2019-06-07T01:14:05.065Z,64.80
2019-06-07T01:16:55.652Z,64.00
2019-06-07T01:19:07.423Z,65.40
2019-06-07T01:21:37.270Z,65.50
2019-06-07T01:24:12.327Z,65.00
2019-06-07T01:26:38.609Z,65.80
2019-06-07T01:29:08.484Z,65.70
2019-06-07T01:31:38.330Z,66.00
2019-06-07T01:34:08.203Z,66.00
2019-06-07T01:36:38.117Z,67.50
2019-06-07T01:39:07.990Z,66.00
2019-06-07T01:41:37.854Z,65.50
2019-06-07T01:44:07.716Z,63.90
2019-06-07T01:46:37.567Z,64.00
2019-06-07T01:49:07.417Z,64.30
2019-06-07T01:51:37.280Z,66.30
2019-06-07T01:54:49.342Z,65.40
2019-06-07T01:56:39.033Z,66.40
2019-06-07T01:59:08.891Z,67.10
2019-06-07T02:01:38.742Z,66.50
2019-06-07T02:04:08.601Z,67.10
2019-06-07T02:06:38.772Z,67.40
2019-06-07T02:09:08.618Z,67.70
2019-06-07T02:11:38.818Z,67.70
2019-06-07T02:14:09.735Z,67.70
2019-06-07T02:16:40.658Z,70.00
2019-06-07T02:19:10.503Z,66.90
2019-06-07T02:21:40.722Z,66.20
2019-06-07T02:24:10.942Z,65.90
2019-06-07T02:26:40.796Z,66.00
2019-06-07T02:29:10.655Z,65.90
2019-06-07T02:31:40.890Z,64.70
2019-06-07T02:34:11.120Z,64.90
2019-06-07T02:36:41.861Z,64.90
2019-06-07T02:39:12.890Z,65.00
2019-06-07T02:41:42.742Z,65.70
2019-06-07T02:44:12.601Z,66.00
2019-06-07T02:46:49.238Z,65.50
2019-06-07T02:49:13.931Z,66.50
2019-06-07T02:51:43.775Z,66.50
2019-06-07T02:54:13.634Z,66.20
2019-06-07T02:56:57.490Z,66.20
2019-06-07T02:59:15.343Z,65.90
2019-06-07T03:01:45.499Z,66.00
2019-06-07T03:04:15.342Z,66.20
2019-06-07T03:06:46.790Z,65.80
2019-06-07T03:09:17.111Z,65.70
2019-06-07T03:11:46.959Z,66.00
2019-06-07T03:14:17.550Z,65.70
2019-06-07T03:16:50.213Z,65.80
2019-06-07T03:19:26.341Z,65.90
2019-06-07T03:21:56.292Z,65.90
2019-06-07T03:24:30.089Z,66.70
2019-06-07T03:29:30.353Z,65.00
2019-06-07T03:32:00.639Z,64.60
2019-06-07T03:34:38.094Z,64.70
2019-06-07T03:37:03.356Z,64.70
2019-06-07T03:39:33.749Z,65.00
2019-06-07T03:42:08.402Z,64.50
2019-06-07T03:44:38.988Z,65.30
2019-06-07T03:47:09.375Z,65.80
2019-06-07T03:49:42.333Z,65.90
2019-06-07T03:52:10.734Z,65.90
2019-06-07T03:54:40.590Z,65.90
2019-06-07T03:57:10.458Z,66.40
2019-06-07T03:59:41.554Z,65.90
2019-06-07T04:02:11.688Z,65.90
2019-06-07T04:04:41.544Z,66.00
2019-06-07T04:07:11.398Z,65.40
2019-06-07T04:09:43.074Z,67.10
2019-06-07T04:12:12.729Z,66.50
2019-06-07T04:14:43.091Z,64.60
2019-06-07T04:17:13.063Z,63.90
2019-06-07T04:19:43.841Z,63.30
2019-06-07T04:22:14.230Z,63.40
2019-06-07T04:24:44.470Z,63.90
2019-06-07T04:27:14.661Z,64.20
2019-06-07T04:30:06.857Z,64.40
2019-06-07T04:32:25.277Z,64.40
2019-06-07T04:34:55.137Z,65.20
2019-06-07T04:37:26.063Z,65.20
2019-06-07T04:39:56.318Z,66.30
2019-06-07T04:42:26.544Z,66.40
2019-06-07T04:44:56.394Z,65.30
2019-06-07T04:47:26.893Z,63.90
2019-06-07T04:49:57.716Z,62.60
2019-06-07T04:52:27.557Z,63.20
2019-06-07T04:54:57.407Z,62.00
2019-06-07T04:57:27.254Z,60.80
2019-06-07T05:00:22.667Z,62.60
2019-06-07T05:02:29.541Z,62.50
2019-06-07T05:04:59.541Z,61.20
2019-06-07T05:07:30.948Z,61.20
2019-06-07T05:10:01.139Z,61.70
2019-06-07T05:12:32.720Z,60.20
2019-06-07T05:15:02.957Z,59.40
2019-06-07T05:17:34.609Z,58.60
2019-06-07T05:20:05.823Z,58.30
2019-06-07T05:22:40.806Z,58.10
2019-06-07T05:25:07.149Z,57.80
2019-06-07T05:27:39.222Z,58.00
2019-06-07T05:30:36.154Z,58.20
2019-06-07T05:32:45.322Z,57.80
2019-06-07T05:35:12.793Z,57.80
2019-06-07T05:37:45.884Z,58.00
2019-06-07T05:40:17.869Z,58.40
2019-06-07T05:42:48.059Z,58.90
2019-06-07T05:45:21.198Z,58.00
2019-06-07T05:47:51.415Z,57.50
2019-06-07T05:50:39.099Z,56.90
2019-06-07T05:52:52.891Z,56.00
2019-06-07T05:55:23.157Z,56.00
2019-06-07T05:57:53.382Z,56.20
2019-06-07T06:00:23.221Z,56.70
2019-06-07T06:03:04.686Z,56.40
2019-06-07T06:05:34.414Z,56.30
2019-06-07T06:07:56.021Z,56.20
2019-06-07T06:10:25.879Z,56.00
2019-06-07T06:12:56.030Z,55.30
2019-06-07T06:15:41.752Z,54.80
2019-06-07T06:17:57.752Z,54.70
2019-06-07T06:20:32.839Z,54.30
2019-06-07T06:22:59.554Z,54.40
2019-06-07T06:25:32.353Z,54.20
2019-06-07T06:28:11.443Z,54.00
2019-06-07T06:30:32.380Z,53.70
2019-06-07T06:33:02.227Z,53.60
2019-06-07T06:35:32.071Z,53.30
2019-06-07T06:38:01.924Z,53.30
2019-06-07T06:40:31.771Z,53.30
2019-06-07T06:43:01.990Z,53.20
2019-06-07T06:45:31.840Z,52.90
2019-06-07T06:48:01.700Z,52.60
2019-06-07T06:50:31.549Z,52.30
2019-06-07T06:53:01.751Z,52.20
2019-06-07T06:55:31.608Z,51.90
2019-06-07T06:58:01.893Z,51.90
2019-06-07T07:00:53.866Z,51.80
2019-06-07T07:03:56.682Z,51.70
2019-06-07T07:05:50.811Z,51.80
2019-06-07T07:08:19.070Z,51.90
2019-06-07T07:10:52.676Z,51.60
2019-06-07T07:13:20.406Z,51.70
2019-06-07T07:15:55.108Z,51.60
2019-06-07T07:18:21.727Z,52.00
2019-06-07T07:20:56.767Z,52.20
2019-06-07T07:23:23.056Z,51.70
2019-06-07T07:25:58.840Z,52.20
2019-06-07T07:28:24.832Z,52.10
2019-06-07T07:30:57.007Z,52.20
2019-06-07T07:33:26.489Z,52.30
2019-06-07T07:36:18.959Z,52.40
2019-06-07T07:38:27.842Z,52.40
2019-06-07T07:41:09.016Z,52.10
2019-06-07T07:43:29.183Z,52.40
2019-06-07T07:46:02.729Z,52.60
2019-06-07T07:48:31.109Z,52.90
2019-06-07T07:51:03.167Z,52.60
2019-06-07T07:53:48.349Z,51.40
2019-06-07T07:56:04.366Z,52.10
2019-06-07T07:58:34.678Z,52.20
2019-06-07T08:01:10.720Z,51.60
2019-06-07T08:03:36.029Z,51.00
2019-06-07T08:06:05.948Z,50.40
2019-06-07T08:08:36.161Z,50.20
2019-06-07T08:11:06.019Z,50.10
2019-06-07T08:13:37.345Z,49.60
2019-06-07T08:16:13.590Z,47.60
2019-06-07T08:18:38.936Z,48.50
2019-06-07T08:21:24.804Z,49.40
2019-06-07T08:23:40.295Z,49.60
2019-06-07T08:26:10.143Z,50.00
2019-06-07T08:28:40.082Z,50.00
2019-06-07T08:31:10.320Z,50.30
2019-06-07T08:33:40.181Z,50.20
2019-06-07T08:36:19.843Z,49.90
2019-06-07T08:38:47.967Z,49.80
2019-06-07T08:41:13.033Z,48.90
2019-06-07T08:43:43.947Z,48.80
2019-06-07T08:46:14.240Z,48.40
2019-06-07T08:48:44.106Z,47.90
2019-06-07T08:51:13.980Z,47.80
2019-06-07T08:54:00.829Z,46.80
2019-06-07T08:56:15.310Z,46.80
2019-06-07T08:58:45.218Z,46.80
2019-06-07T09:01:15.131Z,46.10
2019-06-07T09:03:44.983Z,45.70
2019-06-07T09:07:01.214Z,45.30
2019-06-07T09:08:46.386Z,44.10
2019-06-07T09:11:16.235Z,45.60
2019-06-07T09:13:46.096Z,44.60
2019-06-07T09:16:16.996Z,44.80
2019-06-07T09:18:46.843Z,44.00
2019-06-07T09:21:17.120Z,44.50
2019-06-07T09:23:46.996Z,44.60
2019-06-07T09:26:18.907Z,43.80
2019-06-07T09:28:48.319Z,43.10
2019-06-07T09:31:18.208Z,43.00
2019-06-07T09:33:48.038Z,42.30
2019-06-07T09:36:18.903Z,42.90
2019-06-07T09:38:49.181Z,43.10
2019-06-07T09:41:19.059Z,43.90
2019-06-07T09:44:18.968Z,43.10
2019-06-07T09:46:20.494Z,41.60
2019-06-07T09:51:21.808Z,43.00
2019-06-07T09:53:51.659Z,43.10
2019-06-07T09:56:21.519Z,42.90
2019-06-07T09:58:53.559Z,40.70
2019-06-07T10:01:22.939Z,42.10
2019-06-07T10:03:52.794Z,39.80
2019-06-07T10:06:22.655Z,39.60
2019-06-07T10:11:24.323Z,40.50
2019-06-07T10:13:54.203Z,39.30
2019-06-07T10:16:24.068Z,41.60
2019-06-07T10:18:53.929Z,41.90
2019-06-07T10:21:24.862Z,42.30
2019-06-07T10:23:55.037Z,41.80
2019-06-07T10:26:25.253Z,39.80
2019-06-07T10:28:55.119Z,39.90
2019-06-07T10:31:24.995Z,39.60
2019-06-07T10:33:55.194Z,40.50
2019-06-07T10:36:25.051Z,41.40
2019-06-07T10:38:54.909Z,41.60
2019-06-07T10:41:24.758Z,41.20
2019-06-07T10:43:54.620Z,40.90
2019-06-07T10:46:24.475Z,40.80
2019-06-07T10:48:54.554Z,42.00
2019-06-07T10:51:24.695Z,42.00
2019-06-07T10:53:54.554Z,40.00
2019-06-07T10:56:24.740Z,40.60
2019-06-07T10:59:09.260Z,39.10
2019-06-07T11:01:39.049Z,39.70
2019-06-07T11:04:09.610Z,40.10
2019-06-07T11:06:39.604Z,39.50
2019-06-07T11:09:10.022Z,39.30
2019-06-07T11:11:40.074Z,40.10
2019-06-07T11:14:10.602Z,40.00
2019-06-07T11:16:40.721Z,39.50
2019-06-07T11:19:15.359Z,40.50
2019-06-07T11:21:42.369Z,36.40
2019-06-07T11:24:12.404Z,42.40
2019-06-07T11:26:43.346Z,40.60
2019-06-07T11:29:14.664Z,40.10
2019-06-07T11:31:47.421Z,38.90
2019-06-07T11:34:16.513Z,36.20
2019-06-07T11:36:46.409Z,37.50
2019-06-07T11:39:16.314Z,37.90
2019-06-07T11:41:46.154Z,42.60
2019-06-07T11:44:17.193Z,42.80
2019-06-07T11:46:47.142Z,43.40
2019-06-07T11:49:20.244Z,41.20
2019-06-07T11:51:48.471Z,37.20
2019-06-07T11:54:20.346Z,39.20
2019-06-07T11:56:49.911Z,35.70
2019-06-07T11:59:20.160Z,36.10
2019-06-07T12:01:50.011Z,34.30
2019-06-07T12:04:32.503Z,33.90
2019-06-07T12:06:51.753Z,36.20
2019-06-07T12:09:21.904Z,36.90
2019-06-07T12:11:51.759Z,33.00
2019-06-07T12:14:21.602Z,34.20
2019-06-07T12:16:51.759Z,34.00
2019-06-07T12:19:21.617Z,34.10
2019-06-07T12:21:51.457Z,33.00
2019-06-07T12:24:21.336Z,31.60
2019-06-07T12:26:51.492Z,33.10
2019-06-07T12:29:21.328Z,36.40
2019-06-07T12:31:51.240Z,32.90
2019-06-07T12:34:21.645Z,30.70
2019-06-07T12:36:51.695Z,35.20
2019-06-07T12:39:22.260Z,33.40
2019-06-07T12:41:52.707Z,35.60
2019-06-07T12:44:22.876Z,32.60
2019-06-07T12:46:53.150Z,37.20
2019-06-07T12:49:23.603Z,31.20
2019-06-07T12:51:53.574Z,31.90
2019-06-07T12:54:23.832Z,33.00
2019-06-07T12:56:53.859Z,31.70
2019-06-07T12:59:24.388Z,35.10
2019-06-07T13:01:54.332Z,33.50
2019-06-07T13:04:25.011Z,34.70
2019-06-07T13:06:55.035Z,33.20
2019-06-07T13:09:24.883Z,35.20
2019-06-07T13:11:54.740Z,32.90
2019-06-07T13:14:24.586Z,32.20
2019-06-07T13:16:54.438Z,32.20
2019-06-07T13:19:24.415Z,31.10
2019-06-07T13:21:54.322Z,32.20
2019-06-07T13:24:25.201Z,32.00
2019-06-07T13:26:55.185Z,30.80
2019-06-07T13:29:29.288Z,30.30
2019-06-07T13:31:56.515Z,32.40
2019-06-07T13:34:26.670Z,31.10
2019-06-07T13:36:56.886Z,32.30
2019-06-07T13:39:29.638Z,31.00
2019-06-07T13:41:58.201Z,32.30
2019-06-07T13:44:29.293Z,32.10
2019-06-07T13:46:59.308Z,36.50
2019-06-07T13:49:29.151Z,31.00
2019-06-07T13:51:59.016Z,30.90
2019-06-07T13:54:29.727Z,32.40
2019-06-07T13:57:02.704Z,30.30
2019-06-07T13:59:31.475Z,32.80
2019-06-07T14:02:01.322Z,32.70
2019-06-07T14:04:31.215Z,29.70
2019-06-07T14:07:01.125Z,29.60
2019-06-07T14:09:30.979Z,27.90
2019-06-07T14:12:00.839Z,27.70
2019-06-07T14:14:31.002Z,29.20
2019-06-07T14:17:01.269Z,29.00
2019-06-07T14:19:31.588Z,27.60
2019-06-07T14:22:01.650Z,29.90
2019-06-07T14:24:31.520Z,26.50
2019-06-07T14:27:07.482Z,28.80
2019-06-07T14:29:37.850Z,33.00
2019-06-07T14:32:08.545Z,29.80
2019-06-07T14:34:38.370Z,30.30
2019-06-07T14:37:08.666Z,36.30
2019-06-07T14:39:38.573Z,32.70
2019-06-07T14:42:10.357Z,32.30
2019-06-07T14:44:40.220Z,32.70
2019-06-07T14:47:10.082Z,32.30
2019-06-07T14:49:39.944Z,33.40
2019-06-07T14:52:09.795Z,34.50
2019-06-07T14:54:39.670Z,33.70
2019-06-07T14:57:09.528Z,35.90
2019-06-07T14:59:39.361Z,36.10
2019-06-07T15:02:09.556Z,34.80
2019-06-07T15:04:41.773Z,35.10
2019-06-07T15:07:13.693Z,33.60
2019-06-07T15:09:43.620Z,33.60
2019-06-07T15:12:24.520Z,33.80
2019-06-07T15:14:44.939Z,32.70
2019-06-07T15:17:14.773Z,32.80
2019-06-07T15:19:44.637Z,34.40
2019-06-07T15:22:14.915Z,33.90
2019-06-07T15:24:44.762Z,34.90
2019-06-07T15:27:14.627Z,32.70
2019-06-07T15:29:44.569Z,32.10
2019-06-07T15:32:14.422Z,33.70
2019-06-07T15:34:44.279Z,33.60
2019-06-07T15:37:14.511Z,34.00
2019-06-07T15:39:44.734Z,34.90
2019-06-07T15:42:14.961Z,32.50
2019-06-07T15:44:44.813Z,32.50
2019-06-07T15:47:14.671Z,33.80
2019-06-07T15:49:45.581Z,34.10
2019-06-07T15:52:15.850Z,34.60
2019-06-07T15:54:45.857Z,32.80
2019-06-07T15:57:16.078Z,34.70
2019-06-07T15:59:46.311Z,34.20
2019-06-07T16:02:16.156Z,35.70
2019-06-07T16:04:46.013Z,35.10
2019-06-07T16:07:16.251Z,34.00
2019-06-07T16:09:46.475Z,32.50
2019-06-07T16:12:16.324Z,33.50
2019-06-07T16:14:46.176Z,33.90
2019-06-07T16:17:16.023Z,33.60
2019-06-07T16:19:46.583Z,32.70
2019-06-07T16:22:16.614Z,32.60
2019-06-07T16:24:46.466Z,32.10
2019-06-07T16:27:16.326Z,32.10
2019-06-07T16:29:46.178Z,32.70
2019-06-07T16:32:16.054Z,32.70
2019-06-07T16:34:46.119Z,33.60
2019-06-07T16:37:16.050Z,34.20
2019-06-07T16:39:45.903Z,34.90
2019-06-07T16:42:15.758Z,35.50
2019-06-07T16:44:45.607Z,35.10
2019-06-07T16:47:15.815Z,34.20
2019-06-07T16:49:45.978Z,34.70
2019-06-07T16:52:15.893Z,34.30
2019-06-07T16:54:45.920Z,35.80
2019-06-07T16:57:15.801Z,35.40
2019-06-07T16:59:49.096Z,36.00
2019-06-07T17:02:17.127Z,35.40
2019-06-07T17:04:47.889Z,34.90
2019-06-07T17:07:18.918Z,34.80
2019-06-07T17:09:49.428Z,35.20
2019-06-07T17:12:19.435Z,34.30
2019-06-07T17:14:49.289Z,34.90
2019-06-07T17:17:19.450Z,35.10
2019-06-07T17:19:49.631Z,36.00
2019-06-07T17:22:19.856Z,36.30
2019-06-07T17:24:49.943Z,37.00
2019-06-07T17:27:19.975Z,37.20
2019-06-07T17:29:50.207Z,37.60
2019-06-07T17:32:20.530Z,36.50
2019-06-07T17:34:50.465Z,38.70
2019-06-07T17:37:20.300Z,41.20
2019-06-07T17:39:51.225Z,42.60
2019-06-07T17:42:22.556Z,43.60
2019-06-07T17:44:53.901Z,44.10
2019-06-07T17:47:23.746Z,44.00
2019-06-07T17:49:53.597Z,44.40
2019-06-07T17:52:23.452Z,44.60
2019-06-07T17:54:53.303Z,45.00
2019-06-07T17:57:23.150Z,44.60
2019-06-07T17:59:52.998Z,45.10
2019-06-07T18:02:22.849Z,44.90
2019-06-07T18:04:53.582Z,45.40
2019-06-07T18:07:23.559Z,45.40
2019-06-07T18:09:53.870Z,45.50
2019-06-07T18:12:23.998Z,45.70
2019-06-07T18:14:54.127Z,46.10
2019-06-07T18:17:34.125Z,46.20
2019-06-07T18:19:55.574Z,46.50
2019-06-07T18:22:25.474Z,46.60
2019-06-07T18:24:55.333Z,46.80
2019-06-07T18:27:25.178Z,47.10
2019-06-07T18:29:55.056Z,47.30
2019-06-07T18:32:25.260Z,47.60
2019-06-07T18:34:55.127Z,47.70
2019-06-07T18:37:25.291Z,47.70
2019-06-07T18:39:55.335Z,47.40
2019-06-07T18:42:25.725Z,48.00
2019-06-07T18:44:55.570Z,48.40
2019-06-07T18:47:25.432Z,49.00
2019-06-07T18:49:57.686Z,49.00
2019-06-07T18:52:32.113Z,48.70
2019-06-07T18:55:01.965Z,49.80
2019-06-07T18:57:31.874Z,49.80
2019-06-07T19:00:02.112Z,49.90
2019-06-07T19:02:31.960Z,50.80
2019-06-07T19:05:02.142Z,50.90
2019-06-07T19:07:32.046Z,50.60
2019-06-07T19:10:01.895Z,51.30
2019-06-07T19:12:31.734Z,50.20
2019-06-07T19:15:01.575Z,50.70
2019-06-07T19:17:31.815Z,50.90
2019-06-07T19:20:01.686Z,50.70
2019-06-07T19:22:31.841Z,50.40
2019-06-07T19:25:01.704Z,50.40
2019-06-07T19:27:33.107Z,50.20
2019-06-07T19:30:03.640Z,50.20
2019-06-07T19:32:33.490Z,50.60
2019-06-07T19:35:03.678Z,51.20
2019-06-07T19:37:33.513Z,51.40
2019-06-07T19:40:04.032Z,51.70
2019-06-07T19:42:34.243Z,51.70
2019-06-07T19:45:28.964Z,51.50
2019-06-07T19:47:37.893Z,51.60
2019-06-07T19:50:08.490Z,51.50
2019-06-07T19:52:38.326Z,51.40
2019-06-07T19:55:09.800Z,50.70
2019-06-07T19:57:40.631Z,50.90
2019-06-07T20:00:13.971Z,50.70
2019-06-07T20:02:42.013Z,50.40
2019-06-07T20:05:24.044Z,50.20
2019-06-07T20:07:54.515Z,50.10
2019-06-07T20:10:24.440Z,50.30
2019-06-07T20:12:54.538Z,50.20
2019-06-07T20:15:29.136Z,50.30
2019-06-07T20:17:57.100Z,50.60
2019-06-07T20:20:30.006Z,50.30
2019-06-07T20:22:59.186Z,50.30
2019-06-07T20:25:29.136Z,50.20
2019-06-07T20:27:59.569Z,50.10
2019-06-07T20:30:30.075Z,50.20
2019-06-07T20:32:59.973Z,50.10
2019-06-07T20:35:30.185Z,49.60
2019-06-07T20:38:01.096Z,49.20
2019-06-07T20:40:31.079Z,49.40
2019-06-07T20:43:01.468Z,49.70
2019-06-07T20:45:34.100Z,49.70
2019-06-07T20:48:04.273Z,50.10
2019-06-07T20:50:34.219Z,49.80
2019-06-07T20:53:05.180Z,49.30
2019-06-07T20:55:35.228Z,49.60
2019-06-07T20:58:05.509Z,49.70
2019-06-07T21:00:35.611Z,49.90
2019-06-07T21:03:05.539Z,49.40
2019-06-07T21:05:36.469Z,49.90
2019-06-07T21:08:09.785Z,49.30
2019-06-07T21:10:38.131Z,49.30
2019-06-07T21:13:08.196Z,49.80
2019-06-07T21:15:48.253Z,50.10
2019-06-07T21:18:19.118Z,50.50
2019-06-07T21:20:42.290Z,50.80
2019-06-07T21:23:12.214Z,51.10
2019-06-07T21:25:42.076Z,51.40
2019-06-07T21:28:11.950Z,51.70
2019-06-07T21:30:41.786Z,52.00
2019-06-07T21:33:11.930Z,52.30
2019-06-07T21:35:42.967Z,52.30
2019-06-07T21:38:12.906Z,52.60
2019-06-07T21:40:42.774Z,52.60
2019-06-07T21:43:12.969Z,52.80
2019-06-07T21:45:43.086Z,53.00
2019-06-07T21:48:14.397Z,53.20
2019-06-07T21:50:45.236Z,53.30
2019-06-07T21:53:16.092Z,53.80
2019-06-07T21:55:46.422Z,53.70
2019-06-07T21:58:16.379Z,54.00
2019-06-07T22:00:52.935Z,54.00
2019-06-07T22:03:23.076Z,54.30
2019-06-07T22:05:54.378Z,54.50
2019-06-07T22:08:24.267Z,54.40
2019-06-07T22:10:54.830Z,54.40
2019-06-07T22:13:24.706Z,54.40
2019-06-07T22:15:54.980Z,54.50
2019-06-07T22:18:24.890Z,54.80
2019-06-07T22:20:55.118Z,54.80
2019-06-07T22:23:25.358Z,54.70
2019-06-07T22:25:55.193Z,54.60
2019-06-07T22:28:25.061Z,54.70
2019-06-07T22:30:55.114Z,54.80
2019-06-07T22:33:24.952Z,54.50
2019-06-07T22:35:54.811Z,54.60
2019-06-07T22:38:24.674Z,54.70
2019-06-07T22:40:54.926Z,54.70
2019-06-07T22:43:24.781Z,54.40
2019-06-07T22:45:54.650Z,54.50
2019-06-07T22:48:24.497Z,54.60
2019-06-07T22:50:54.682Z,54.80
2019-06-07T22:53:24.539Z,54.70
2019-06-07T22:55:56.034Z,55.00
2019-06-07T22:58:26.965Z,55.20
2019-06-07T23:00:57.227Z,55.10
2019-06-07T23:03:27.094Z,55.40
2019-06-07T23:05:56.950Z,55.50
2019-06-07T23:08:26.814Z,55.80
2019-06-07T23:10:56.667Z,56.00
2019-06-07T23:13:26.536Z,56.60
2019-06-07T23:15:56.386Z,57.10
2019-06-07T23:18:26.279Z,57.30
2019-06-07T23:20:56.150Z,57.40
2019-06-07T23:23:26.355Z,57.30
2019-06-07T23:25:56.229Z,57.20
2019-06-07T23:28:26.386Z,57.10
2019-06-07T23:30:56.251Z,57.20
2019-06-07T23:33:26.110Z,57.10
2019-06-07T23:35:56.030Z,57.20
2019-06-07T23:38:25.891Z,57.00
2019-06-07T23:40:55.742Z,56.80
2019-06-07T23:43:25.998Z,56.60
2019-06-07T23:45:55.855Z,56.70
2019-06-07T23:48:25.719Z,56.70
2019-06-07T23:50:55.930Z,56.60
2019-06-07T23:53:25.798Z,56.80
2019-06-07T23:55:55.662Z,56.80
2019-06-07T23:58:25.539Z,57.00
